createdAt,value
2019-04-30T00:00:06.189Z,8.77
2019-04-30T00:02:48.273Z,8.37
2019-04-30T00:05:18.733Z,8.10
2019-04-30T00:07:50.807Z,8.30
2019-04-30T00:10:18.159Z,6.77
2019-04-30T00:12:46.729Z,7.30
2019-04-30T00:15:16.130Z,7.13
2019-04-30T00:17:46.032Z,7.40
2019-04-30T00:20:17.759Z,7.73
2019-04-30T00:22:49.416Z,7.60
2019-04-30T00:25:19.701Z,7.80
2019-04-30T00:27:48.094Z,7.80
2019-04-30T00:30:16.457Z,7.73
2019-04-30T00:32:46.920Z,8.60
2019-04-30T00:35:16.275Z,7.47
2019-04-30T00:37:47.440Z,8.87
2019-04-30T00:40:15.492Z,10.17
2019-04-30T00:42:45.675Z,8.70
2019-04-30T00:45:15.430Z,10.03
2019-04-30T00:47:47.798Z,10.30
2019-04-30T00:50:14.953Z,8.73
2019-04-30T00:52:43.649Z,8.70
2019-04-30T00:55:12.116Z,9.00
2019-04-30T00:57:43.863Z,8.50
2019-04-30T01:00:19.619Z,8.73
2019-04-30T01:02:48.236Z,9.33
2019-04-30T01:05:18.296Z,8.70
2019-04-30T01:07:50.202Z,8.23
2019-04-30T01:10:19.735Z,8.67
2019-04-30T01:12:50.156Z,7.23
2019-04-30T01:15:19.051Z,7.07
2019-04-30T01:17:50.974Z,7.07
2019-04-30T01:20:19.626Z,7.80
2019-04-30T01:22:48.694Z,7.73
2019-04-30T01:25:18.754Z,8.33
2019-04-30T01:27:49.094Z,8.90
2019-04-30T01:30:22.760Z,8.27
2019-04-30T01:32:56.214Z,8.60
2019-04-30T01:35:23.810Z,8.87
2019-04-30T01:37:49.855Z,9.13
2019-04-30T01:40:18.976Z,8.40
2019-04-30T01:42:50.763Z,7.93
2019-04-30T01:45:18.815Z,7.67
2019-04-30T01:47:49.482Z,7.43
2019-04-30T01:50:19.285Z,8.13
2019-04-30T01:52:53.649Z,9.30
2019-04-30T01:55:41.686Z,9.80
2019-04-30T01:58:19.398Z,10.70
2019-04-30T02:00:55.337Z,9.80
2019-04-30T02:03:23.759Z,9.17
2019-04-30T02:05:52.145Z,9.57
2019-04-30T02:08:20.560Z,10.30
2019-04-30T02:10:51.281Z,10.20
2019-04-30T02:13:19.262Z,10.17
2019-04-30T02:15:49.225Z,12.33
2019-04-30T02:18:19.545Z,11.93
2019-04-30T02:20:49.709Z,12.67
2019-04-30T02:23:19.634Z,12.57
2019-04-30T02:25:49.048Z,15.47
2019-04-30T02:28:18.948Z,15.77
2019-04-30T02:30:50.089Z,18.87
2019-04-30T02:33:19.831Z,23.70
2019-04-30T02:35:50.149Z,21.87
2019-04-30T02:38:20.474Z,21.63
2019-04-30T02:40:50.623Z,21.97
2019-04-30T02:43:20.963Z,21.13
2019-04-30T02:45:51.306Z,19.67
2019-04-30T02:48:23.344Z,18.70
2019-04-30T02:50:53.545Z,21.50
2019-04-30T02:53:51.011Z,23.50
2019-04-30T02:56:20.455Z,24.20
2019-04-30T02:58:50.800Z,22.23
2019-04-30T03:01:20.227Z,22.20
2019-04-30T03:03:50.104Z,21.93
2019-04-30T03:06:20.543Z,24.07
2019-04-30T03:08:51.067Z,23.43
2019-04-30T03:11:20.777Z,24.00
2019-04-30T03:13:49.627Z,23.20
2019-04-30T03:16:20.706Z,22.77
2019-04-30T03:18:51.004Z,22.43
2019-04-30T03:21:41.493Z,22.60
2019-04-30T03:24:10.980Z,24.77
2019-04-30T03:26:40.197Z,24.87
2019-04-30T03:29:11.335Z,24.00
2019-04-30T03:31:44.057Z,24.40
2019-04-30T03:34:16.689Z,25.00
2019-04-30T03:36:40.627Z,24.93
2019-04-30T03:39:10.877Z,23.47
2019-04-30T03:41:41.381Z,24.73
2019-04-30T03:44:20.843Z,24.47
2019-04-30T03:46:40.324Z,26.00
2019-04-30T03:49:12.599Z,28.30
2019-04-30T03:51:40.361Z,25.60
2019-04-30T03:54:10.025Z,26.10
2019-04-30T03:56:39.649Z,26.87
2019-04-30T03:59:10.513Z,30.47
2019-04-30T04:01:52.073Z,30.03
2019-04-30T04:04:24.823Z,26.90
2019-04-30T04:06:54.860Z,45.80
2019-04-30T04:09:30.024Z,33.50
2019-04-30T04:11:59.939Z,31.73
2019-04-30T04:14:29.640Z,31.50
2019-04-30T04:17:00.107Z,29.40
2019-04-30T04:19:29.248Z,32.00
2019-04-30T04:21:59.967Z,35.13
2019-04-30T04:24:30.085Z,34.83
2019-04-30T04:26:59.687Z,41.60
2019-04-30T04:29:29.855Z,46.40
2019-04-30T04:32:00.739Z,51.40
2019-04-30T04:34:30.257Z,51.60
2019-04-30T04:37:00.089Z,49.30
2019-04-30T04:39:29.771Z,46.80
2019-04-30T04:41:59.982Z,44.97
2019-04-30T04:44:29.478Z,46.90
2019-04-30T04:47:00.160Z,47.67
2019-04-30T04:49:30.587Z,45.67
2019-04-30T04:51:59.185Z,43.83
2019-04-30T04:54:29.818Z,43.53
2019-04-30T04:57:11.101Z,50.73
2019-04-30T04:59:29.726Z,44.20
2019-04-30T05:02:01.547Z,66.20
2019-04-30T05:04:29.968Z,44.60
2019-04-30T05:07:00.041Z,43.67
2019-04-30T05:09:28.670Z,45.27
2019-04-30T05:11:58.590Z,40.47
2019-04-30T05:14:28.795Z,39.30
2019-04-30T05:16:58.684Z,40.30
2019-04-30T05:19:28.583Z,40.80
2019-04-30T05:21:57.065Z,40.27
2019-04-30T05:24:25.961Z,39.95
2019-04-30T05:26:54.361Z,39.30
2019-04-30T05:29:22.754Z,41.40
2019-04-30T05:31:51.186Z,39.60
2019-04-30T05:34:19.573Z,38.77
2019-04-30T05:36:49.043Z,39.10
2019-04-30T05:39:19.149Z,38.53
2019-04-30T05:41:49.148Z,40.60
2019-04-30T05:44:18.541Z,40.77
2019-04-30T05:46:47.056Z,39.47
2019-04-30T05:49:15.622Z,37.93
2019-04-30T05:51:54.934Z,38.13
2019-04-30T05:54:14.135Z,37.30
2019-04-30T05:56:42.815Z,38.13
2019-04-30T05:59:11.429Z,35.10
2019-04-30T06:01:39.831Z,36.60
2019-04-30T06:04:09.544Z,35.07
2019-04-30T06:06:38.853Z,35.57
2019-04-30T06:09:28.929Z,35.63
2019-04-30T06:11:59.558Z,35.77
2019-04-30T06:14:49.893Z,38.03
2019-04-30T06:17:32.095Z,34.87
2019-04-30T06:20:00.579Z,34.23
2019-04-30T06:22:29.426Z,32.57
2019-04-30T06:24:59.466Z,29.73
2019-04-30T06:27:29.136Z,30.57
2019-04-30T06:29:58.526Z,29.07
2019-04-30T06:32:27.037Z,30.10
2019-04-30T06:34:55.851Z,30.27
2019-04-30T06:37:24.524Z,29.77
2019-04-30T06:39:52.925Z,29.53
2019-04-30T06:42:21.501Z,29.73
2019-04-30T06:44:50.437Z,26.97
2019-04-30T06:47:32.211Z,26.90
2019-04-30T06:49:49.441Z,25.50
2019-04-30T06:52:21.387Z,25.47
2019-04-30T06:54:49.835Z,25.47
2019-04-30T06:57:19.902Z,25.60
2019-04-30T06:59:51.284Z,24.87
2019-04-30T07:02:19.654Z,25.27
2019-04-30T07:04:49.154Z,26.80
2019-04-30T07:07:19.242Z,23.50
2019-04-30T07:09:58.612Z,23.67
2019-04-30T07:12:30.285Z,25.03
2019-04-30T07:14:59.179Z,23.37
2019-04-30T07:17:29.237Z,22.87
2019-04-30T07:19:59.523Z,21.70
2019-04-30T07:22:37.643Z,23.13
2019-04-30T07:24:59.526Z,22.80
2019-04-30T07:27:30.144Z,21.60
2019-04-30T07:29:59.594Z,23.13
2019-04-30T07:32:28.789Z,21.83
2019-04-30T07:34:59.284Z,19.83
2019-04-30T07:37:29.214Z,19.60
2019-04-30T07:39:58.930Z,20.53
2019-04-30T07:42:29.499Z,19.20
2019-04-30T07:45:00.426Z,21.77
2019-04-30T07:47:29.573Z,23.43
2019-04-30T07:50:00.466Z,22.23
2019-04-30T07:52:33.292Z,21.27
2019-04-30T07:55:00.619Z,21.70
2019-04-30T07:57:29.247Z,20.60
2019-04-30T08:00:00.522Z,20.17
2019-04-30T08:02:36.102Z,21.13
2019-04-30T08:05:04.980Z,20.27
2019-04-30T08:07:33.411Z,20.50
2019-04-30T08:10:02.108Z,20.53
2019-04-30T08:12:35.186Z,19.47
2019-04-30T08:15:00.641Z,20.17
2019-04-30T08:17:29.228Z,19.87
2019-04-30T08:19:58.743Z,19.47
2019-04-30T08:22:27.285Z,19.83
2019-04-30T08:24:55.997Z,20.50
2019-04-30T08:27:24.405Z,19.90
2019-04-30T08:29:52.806Z,19.97
2019-04-30T08:32:21.246Z,21.63
2019-04-30T08:34:50.218Z,21.50
2019-04-30T08:37:20.279Z,21.33
2019-04-30T08:39:49.717Z,21.37
2019-04-30T08:42:29.000Z,22.43
2019-04-30T08:44:48.604Z,21.83
2019-04-30T08:47:20.954Z,22.43
2019-04-30T08:49:49.599Z,21.40
2019-04-30T08:52:19.396Z,20.73
2019-04-30T08:54:49.469Z,21.67
2019-04-30T08:57:19.054Z,21.97
2019-04-30T08:59:49.511Z,20.50
2019-04-30T09:02:19.704Z,22.83
2019-04-30T09:04:49.885Z,22.20
2019-04-30T09:07:19.703Z,21.57
2019-04-30T09:09:48.834Z,23.67
2019-04-30T09:12:19.403Z,25.73
2019-04-30T09:14:49.084Z,24.90
2019-04-30T09:17:19.728Z,24.40
2019-04-30T09:19:49.026Z,26.27
2019-04-30T09:22:19.428Z,25.20
2019-04-30T09:24:49.649Z,25.87
2019-04-30T09:27:19.585Z,25.43
2019-04-30T09:29:49.248Z,24.87
2019-04-30T09:32:19.362Z,25.50
2019-04-30T09:34:48.844Z,23.23
2019-04-30T09:37:18.696Z,25.13
2019-04-30T09:39:49.245Z,26.37
2019-04-30T09:42:19.523Z,23.50
2019-04-30T09:44:49.224Z,26.23
2019-04-30T09:47:19.917Z,26.42
2019-04-30T09:49:49.363Z,24.70
2019-04-30T09:52:19.307Z,25.30
2019-04-30T09:54:50.040Z,25.20
2019-04-30T09:57:19.282Z,29.43
2019-04-30T09:59:48.624Z,28.23
2019-04-30T10:02:19.178Z,24.43
2019-04-30T10:04:48.074Z,26.90
2019-04-30T10:07:16.741Z,24.87
2019-04-30T10:09:45.158Z,25.37
2019-04-30T10:12:16.938Z,26.97
2019-04-30T10:14:45.401Z,23.23
2019-04-30T10:17:18.191Z,24.33
2019-04-30T10:19:46.586Z,25.23
2019-04-30T10:22:15.049Z,26.57
2019-04-30T10:24:43.546Z,27.73
2019-04-30T10:27:13.448Z,29.17
2019-04-30T10:29:42.658Z,25.10
2019-04-30T10:32:11.690Z,25.87
2019-04-30T10:34:40.470Z,25.30
2019-04-30T10:37:09.077Z,24.37
2019-04-30T10:39:38.929Z,25.17
2019-04-30T10:42:07.756Z,24.07
2019-04-30T10:44:36.515Z,23.90
2019-04-30T10:47:05.138Z,26.13
2019-04-30T10:49:33.784Z,24.10
2019-04-30T10:52:02.181Z,24.27
2019-04-30T10:54:30.610Z,23.73
2019-04-30T10:56:59.288Z,25.53
2019-04-30T10:59:27.781Z,23.00
2019-04-30T11:01:56.221Z,24.93
2019-04-30T11:04:25.456Z,21.27
2019-04-30T11:06:53.857Z,25.63
2019-04-30T11:09:22.336Z,24.07
2019-04-30T11:11:50.733Z,24.33
2019-04-30T11:14:19.164Z,22.33
2019-04-30T11:16:51.238Z,26.53
2019-04-30T11:19:19.280Z,26.27
2019-04-30T11:21:48.098Z,24.33
2019-04-30T11:24:18.994Z,24.87
2019-04-30T11:26:49.492Z,23.70
2019-04-30T11:29:17.411Z,26.10
2019-04-30T11:31:57.164Z,21.50
2019-04-30T11:34:28.058Z,23.97
2019-04-30T11:36:55.896Z,23.93
2019-04-30T11:39:24.743Z,26.53
2019-04-30T11:41:53.255Z,25.13
2019-04-30T11:44:30.625Z,24.53
2019-04-30T11:47:01.037Z,28.60
2019-04-30T11:49:29.675Z,25.63
2019-04-30T11:51:58.161Z,26.20
2019-04-30T11:54:26.570Z,24.70
2019-04-30T11:56:54.966Z,24.10
2019-04-30T11:59:23.361Z,21.20
2019-04-30T12:01:53.439Z,25.50
2019-04-30T12:04:21.844Z,24.13
2019-04-30T12:06:50.704Z,27.13
2019-04-30T12:09:38.575Z,26.07
2019-04-30T12:12:09.037Z,25.57
2019-04-30T12:14:37.117Z,23.50
2019-04-30T12:17:05.566Z,27.67
2019-04-30T12:19:33.973Z,26.60
2019-04-30T12:22:02.397Z,26.97
2019-04-30T12:24:30.819Z,28.17
2019-04-30T12:26:59.218Z,26.17
2019-04-30T12:29:29.159Z,24.60
2019-04-30T12:31:57.631Z,25.00
2019-04-30T12:34:26.039Z,23.97
2019-04-30T12:36:54.767Z,24.53
2019-04-30T12:39:23.188Z,22.13
2019-04-30T12:41:51.844Z,19.93
2019-04-30T12:44:20.311Z,20.60
2019-04-30T12:46:48.745Z,24.00
2019-04-30T12:49:18.983Z,22.63
2019-04-30T12:51:50.572Z,19.83
2019-04-30T12:54:26.817Z,19.13
2019-04-30T12:57:02.430Z,25.20
2019-04-30T12:59:30.952Z,19.50
2019-04-30T13:01:59.438Z,20.02
2019-04-30T13:04:29.328Z,22.50
2019-04-30T13:07:01.634Z,21.43
2019-04-30T13:09:30.089Z,20.10
2019-04-30T13:12:00.596Z,18.03
2019-04-30T13:14:30.043Z,18.90
2019-04-30T13:16:59.038Z,20.10
2019-04-30T13:19:27.640Z,21.97
2019-04-30T13:21:58.598Z,22.40
2019-04-30T13:24:26.345Z,16.37
2019-04-30T13:26:54.769Z,14.47
2019-04-30T13:29:25.107Z,16.17
2019-04-30T13:31:53.553Z,19.83
2019-04-30T13:34:39.999Z,16.87
2019-04-30T13:37:09.307Z,16.17
2019-04-30T13:39:52.132Z,15.07
2019-04-30T13:42:20.590Z,15.27
2019-04-30T13:44:49.447Z,14.50
2019-04-30T13:47:19.208Z,14.30
2019-04-30T13:49:49.405Z,15.77
2019-04-30T13:52:17.936Z,14.83
2019-04-30T13:54:46.346Z,12.20
2019-04-30T13:57:14.837Z,14.03
2019-04-30T13:59:43.235Z,14.33
2019-04-30T14:02:11.644Z,13.20
2019-04-30T14:04:41.705Z,13.67
2019-04-30T14:07:14.735Z,13.57
2019-04-30T14:09:43.131Z,12.93
2019-04-30T14:12:11.811Z,12.73
2019-04-30T14:14:40.212Z,14.80
2019-04-30T14:17:09.255Z,14.53
2019-04-30T14:19:37.814Z,13.60
2019-04-30T14:22:08.963Z,13.23
2019-04-30T14:24:37.474Z,13.57
2019-04-30T14:27:06.002Z,11.83
2019-04-30T14:29:34.403Z,11.80
2019-04-30T14:32:02.872Z,10.33
2019-04-30T14:34:31.415Z,12.67
2019-04-30T14:36:59.818Z,12.27
2019-04-30T14:39:29.185Z,12.60
2019-04-30T14:41:59.994Z,10.20
2019-04-30T14:44:31.864Z,11.10
2019-04-30T14:47:12.462Z,13.13
2019-04-30T14:49:42.490Z,12.70
2019-04-30T14:52:11.123Z,13.70
2019-04-30T14:54:41.212Z,13.37
2019-04-30T14:57:16.765Z,13.90
2019-04-30T14:59:52.819Z,11.73
2019-04-30T15:02:29.609Z,12.07
2019-04-30T15:04:58.731Z,14.13
2019-04-30T15:07:27.343Z,13.90
2019-04-30T15:09:55.811Z,13.60
2019-04-30T15:12:24.219Z,13.30
2019-04-30T15:14:52.634Z,13.23
2019-04-30T15:17:21.032Z,13.90
2019-04-30T15:19:54.253Z,14.53
2019-04-30T15:22:19.559Z,13.80
2019-04-30T15:24:49.219Z,14.07
2019-04-30T15:27:19.127Z,14.53
2019-04-30T15:29:56.584Z,15.67
2019-04-30T15:32:18.597Z,14.40
2019-04-30T15:34:48.923Z,15.67
2019-04-30T15:37:21.218Z,13.10
2019-04-30T15:39:48.970Z,14.37
2019-04-30T15:42:18.643Z,13.00
2019-04-30T15:44:47.044Z,13.43
2019-04-30T15:47:15.716Z,14.97
2019-04-30T15:49:44.108Z,16.67
2019-04-30T15:52:12.652Z,15.47
2019-04-30T15:54:41.066Z,14.73
2019-04-30T15:57:09.467Z,15.13
2019-04-30T15:59:39.750Z,15.30
2019-04-30T16:02:10.284Z,13.50
2019-04-30T16:04:56.722Z,14.50
2019-04-30T16:07:25.144Z,15.20
2019-04-30T16:10:04.113Z,13.27
2019-04-30T16:12:34.440Z,15.73
2019-04-30T16:15:02.821Z,13.17
2019-04-30T16:17:31.229Z,14.67
2019-04-30T16:19:59.656Z,14.43
2019-04-30T16:22:29.187Z,14.70
2019-04-30T16:25:00.425Z,13.33
2019-04-30T16:27:28.025Z,14.73
2019-04-30T16:29:56.495Z,14.73
2019-04-30T16:32:24.911Z,14.50
2019-04-30T16:34:53.405Z,13.57
2019-04-30T16:37:21.807Z,14.10
2019-04-30T16:39:50.203Z,15.47
2019-04-30T16:42:19.145Z,14.33
2019-04-30T16:44:47.618Z,12.77
2019-04-30T16:47:17.118Z,15.13
2019-04-30T16:49:45.887Z,14.00
2019-04-30T16:52:14.581Z,12.63
2019-04-30T16:54:42.986Z,13.20
2019-04-30T16:57:11.417Z,13.50
2019-04-30T16:59:41.455Z,12.90
2019-04-30T17:02:10.597Z,14.80
2019-04-30T17:04:43.550Z,13.30
2019-04-30T17:07:13.590Z,14.00
2019-04-30T17:09:43.971Z,15.47
2019-04-30T17:12:14.042Z,13.57
2019-04-30T17:14:43.633Z,14.40
2019-04-30T17:17:12.017Z,13.93
2019-04-30T17:19:40.442Z,13.87
2019-04-30T17:22:08.852Z,13.30
2019-04-30T17:24:39.228Z,13.67
2019-04-30T17:27:18.705Z,14.07
2019-04-30T17:29:37.597Z,14.27
2019-04-30T17:32:05.999Z,15.67
2019-04-30T17:34:34.423Z,14.37
2019-04-30T17:37:02.822Z,16.10
2019-04-30T17:39:31.291Z,15.23
2019-04-30T17:41:59.715Z,15.23
2019-04-30T17:44:28.912Z,16.33
2019-04-30T17:46:57.642Z,14.70
2019-04-30T17:49:26.064Z,15.33
2019-04-30T17:51:54.471Z,14.50
2019-04-30T17:54:23.050Z,15.67
2019-04-30T17:56:51.462Z,15.57
2019-04-30T17:59:19.871Z,14.50
2019-04-30T18:01:59.686Z,15.30
2019-04-30T18:04:29.684Z,13.60
2019-04-30T18:06:59.106Z,14.90
2019-04-30T18:09:29.205Z,14.63
2019-04-30T18:11:59.472Z,14.57
2019-04-30T18:14:28.578Z,15.07
2019-04-30T18:16:59.320Z,15.23
2019-04-30T18:19:29.109Z,15.48
2019-04-30T18:21:59.717Z,16.03
2019-04-30T18:24:39.362Z,16.17
2019-04-30T18:27:21.501Z,16.37
2019-04-30T18:29:50.246Z,16.23
2019-04-30T18:32:19.712Z,17.23
2019-04-30T18:34:49.119Z,14.90
2019-04-30T18:37:18.895Z,15.27
2019-04-30T18:39:47.317Z,14.90
2019-04-30T18:42:15.784Z,14.27
2019-04-30T18:44:44.336Z,14.53
2019-04-30T18:47:12.735Z,14.90
2019-04-30T18:49:41.137Z,14.13
2019-04-30T18:52:09.631Z,12.80
2019-04-30T18:54:39.718Z,12.53
2019-04-30T18:57:08.290Z,14.77
2019-04-30T18:59:36.864Z,13.20
2019-04-30T19:02:06.981Z,14.57
2019-04-30T19:04:38.338Z,14.67
2019-04-30T19:07:07.402Z,15.10
2019-04-30T19:09:43.653Z,14.83
2019-04-30T19:12:31.915Z,12.37
2019-04-30T19:15:04.918Z,12.20
2019-04-30T19:17:49.568Z,11.40
2019-04-30T19:20:25.802Z,12.93
2019-04-30T19:22:54.197Z,12.73
2019-04-30T19:25:22.629Z,10.30
2019-04-30T19:27:51.032Z,11.07
2019-04-30T19:30:19.772Z,11.10
2019-04-30T19:32:49.119Z,12.40
2019-04-30T19:35:18.767Z,13.43
2019-04-30T19:37:48.691Z,12.27
2019-04-30T19:40:19.000Z,12.47
2019-04-30T19:42:50.324Z,12.43
2019-04-30T19:45:17.957Z,12.30
2019-04-30T19:47:46.360Z,12.43
2019-04-30T19:50:14.929Z,11.23
2019-04-30T19:52:43.332Z,11.20
2019-04-30T19:55:11.927Z,11.77
2019-04-30T19:57:40.336Z,11.93
2019-04-30T20:00:09.411Z,10.83
2019-04-30T20:02:39.193Z,11.57
2019-04-30T20:05:09.037Z,12.30
2019-04-30T20:07:37.474Z,13.63
2019-04-30T20:10:09.021Z,12.03
2019-04-30T20:12:38.871Z,11.40
2019-04-30T20:15:17.221Z,13.30
2019-04-30T20:17:38.566Z,12.00
2019-04-30T20:20:08.965Z,12.00
2019-04-30T20:22:38.964Z,14.55
2019-04-30T20:25:09.256Z,14.63
2019-04-30T20:27:39.563Z,15.83
2019-04-30T20:30:09.545Z,15.70
2019-04-30T20:32:38.400Z,14.53
2019-04-30T20:35:09.587Z,15.60
2019-04-30T20:37:55.477Z,14.20
2019-04-30T20:40:25.653Z,13.43
2019-04-30T20:42:54.064Z,14.13
2019-04-30T20:45:22.714Z,16.10
2019-04-30T20:47:51.374Z,15.40
2019-04-30T20:50:19.763Z,14.17
2019-04-30T20:52:49.065Z,15.33
2019-04-30T20:55:17.557Z,15.93
2019-04-30T20:57:45.906Z,15.13
2019-04-30T21:00:15.138Z,12.90
2019-04-30T21:02:43.527Z,15.17
2019-04-30T21:05:12.063Z,13.83
2019-04-30T21:07:40.575Z,15.97
2019-04-30T21:10:10.102Z,15.47
2019-04-30T21:12:39.661Z,14.53
2019-04-30T21:15:09.679Z,13.33
2019-04-30T21:17:38.264Z,13.80
2019-04-30T21:20:09.476Z,13.63
2019-04-30T21:22:38.865Z,14.40
2019-04-30T21:25:10.952Z,14.97
2019-04-30T21:27:40.115Z,16.03
2019-04-30T21:30:09.981Z,14.60
2019-04-30T21:32:52.171Z,15.97
2019-04-30T21:35:24.664Z,13.60
2019-04-30T21:37:54.871Z,12.60
2019-04-30T21:40:23.432Z,12.37
2019-04-30T21:42:51.928Z,13.63
2019-04-30T21:45:20.328Z,13.73
2019-04-30T21:47:56.097Z,15.93
2019-04-30T21:50:19.683Z,14.37
2019-04-30T21:52:49.562Z,14.57
2019-04-30T21:55:19.658Z,13.50
2019-04-30T21:57:49.638Z,13.17
2019-04-30T22:00:36.782Z,12.57
2019-04-30T22:03:07.164Z,14.57
2019-04-30T22:05:35.702Z,14.87
2019-04-30T22:08:05.434Z,14.23
2019-04-30T22:10:33.859Z,13.47
2019-04-30T22:13:02.559Z,14.53
2019-04-30T22:15:30.954Z,14.07
2019-04-30T22:17:59.380Z,14.70
2019-04-30T22:20:29.212Z,12.93
2019-04-30T22:22:57.640Z,12.13
2019-04-30T22:25:26.056Z,13.20
2019-04-30T22:27:54.442Z,12.17
2019-04-30T22:30:22.846Z,12.53
2019-04-30T22:32:51.259Z,12.47
2019-04-30T22:35:21.299Z,13.27
2019-04-30T22:37:51.332Z,13.50
2019-04-30T22:40:19.749Z,13.83
2019-04-30T22:42:49.536Z,13.47
2019-04-30T22:45:19.651Z,13.30
2019-04-30T22:47:50.224Z,12.90
2019-04-30T22:50:18.255Z,11.43
2019-04-30T22:52:46.658Z,11.60
2019-04-30T22:55:15.222Z,12.50
2019-04-30T22:57:43.619Z,12.37
2019-04-30T23:00:15.133Z,12.40
2019-04-30T23:03:03.307Z,12.90
2019-04-30T23:05:31.709Z,14.23
2019-04-30T23:08:00.176Z,15.10
2019-04-30T23:10:28.595Z,16.33
2019-04-30T23:12:57.061Z,15.83
2019-04-30T23:15:25.522Z,16.10
2019-04-30T23:17:54.019Z,16.07
2019-04-30T23:20:22.419Z,15.60
2019-04-30T23:22:50.808Z,15.13
2019-04-30T23:25:19.230Z,14.00
2019-04-30T23:27:47.628Z,13.03
2019-04-30T23:30:16.497Z,13.67
2019-04-30T23:32:44.908Z,13.67
2019-04-30T23:35:13.373Z,14.50
2019-04-30T23:37:42.056Z,14.87
2019-04-30T23:40:28.738Z,12.47
2019-04-30T23:42:57.278Z,12.00
2019-04-30T23:45:26.013Z,12.17
2019-04-30T23:47:54.579Z,12.07
2019-04-30T23:50:23.051Z,12.70
2019-04-30T23:52:51.507Z,13.03
2019-04-30T23:55:19.927Z,14.13
2019-04-30T23:57:48.320Z,14.73
